sensor_id;sensor_type;location;lat;lon;timestamp;temperature;humidity
4635;DHT22;2330;48.158;11.816;2022-10-12T00:01:04;13.00;98.50
4635;DHT22;2330;48.158;11.816;2022-10-12T00:03:31;12.90;98.50
4635;DHT22;2330;48.158;11.816;2022-10-12T00:06:11;12.90;98.50
4635;DHT22;2330;48.158;11.816;2022-10-12T00:08:39;13.00;98.50
4635;DHT22;2330;48.158;11.816;2022-10-12T00:11:09;13.00;98.50
4635;DHT22;2330;48.158;11.816;2022-10-12T00:13:37;13.00;98.50
4635;DHT22;2330;48.158;11.816;2022-10-12T00:16:05;13.00;98.50
4635;DHT22;2330;48.158;11.816;2022-10-12T00:18:33;13.00;98.50
4635;DHT22;2330;48.158;11.816;2022-10-12T00:21:09;13.00;98.50
4635;DHT22;2330;48.158;11.816;2022-10-12T00:23:36;13.00;98.50
4635;DHT22;2330;48.158;11.816;2022-10-12T00:26:14;13.00;98.50
4635;DHT22;2330;48.158;11.816;2022-10-12T00:28:42;13.10;98.50
4635;DHT22;2330;48.158;11.816;2022-10-12T00:31:14;13.10;98.50
4635;DHT22;2330;48.158;11.816;2022-10-12T00:33:41;13.10;98.50
4635;DHT22;2330;48.158;11.816;2022-10-12T00:36:23;13.00;98.50
4635;DHT22;2330;48.158;11.816;2022-10-12T00:38:51;13.00;98.50
4635;DHT22;2330;48.158;11.816;2022-10-12T00:41:21;12.90;98.50
4635;DHT22;2330;48.158;11.816;2022-10-12T00:43:49;12.90;98.50
4635;DHT22;2330;48.158;11.816;2022-10-12T00:46:30;12.90;98.50
4635;DHT22;2330;48.158;11.816;2022-10-12T00:49:21;12.90;98.50
4635;DHT22;2330;48.158;11.816;2022-10-12T00:51:52;12.90;98.50
4635;DHT22;2330;48.158;11.816;2022-10-12T00:54:23;13.00;98.50
4635;DHT22;2330;48.158;11.816;2022-10-12T00:56:52;13.00;98.50
4635;DHT22;2330;48.158;11.816;2022-10-12T00:59:30;13.00;98.50
4635;DHT22;2330;48.158;11.816;2022-10-12T01:01:58;13.00;98.50
4635;DHT22;2330;48.158;11.816;2022-10-12T01:04:25;13.00;98.50
4635;DHT22;2330;48.158;11.816;2022-10-12T01:06:52;13.00;98.50
4635;DHT22;2330;48.158;11.816;2022-10-12T01:09:20;13.00;98.50
4635;DHT22;2330;48.158;11.816;2022-10-12T01:11:47;13.10;98.50
4635;DHT22;2330;48.158;11.816;2022-10-12T01:14:14;13.10;98.50
4635;DHT22;2330;48.158;11.816;2022-10-12T01:16:50;13.10;98.50
4635;DHT22;2330;48.158;11.816;2022-10-12T01:22:10;13.00;98.50
4635;DHT22;2330;48.158;11.816;2022-10-12T01:24:47;13.00;98.50
4635;DHT22;2330;48.158;11.816;2022-10-12T01:27:38;13.00;98.50
4635;DHT22;2330;48.158;11.816;2022-10-12T01:30:20;13.10;98.50
4635;DHT22;2330;48.158;11.816;2022-10-12T01:32:53;13.10;98.50
4635;DHT22;2330;48.158;11.816;2022-10-12T01:35:24;13.10;98.50
4635;DHT22;2330;48.158;11.816;2022-10-12T01:40:45;13.10;98.50
4635;DHT22;2330;48.158;11.816;2022-10-12T01:43:20;13.10;98.50
4635;DHT22;2330;48.158;11.816;2022-10-12T01:45:49;13.10;98.50
4635;DHT22;2330;48.158;11.816;2022-10-12T01:48:16;13.10;98.50
4635;DHT22;2330;48.158;11.816;2022-10-12T01:50:55;13.10;98.50
4635;DHT22;2330;48.158;11.816;2022-10-12T02:04:01;13.10;98.50
4635;DHT22;2330;48.158;11.816;2022-10-12T02:06:35;13.10;98.50
4635;DHT22;2330;48.158;11.816;2022-10-12T02:11:35;13.00;98.50
4635;DHT22;2330;48.158;11.816;2022-10-12T02:14:22;13.00;98.50
4635;DHT22;2330;48.158;11.816;2022-10-12T02:16:57;13.00;98.50
4635;DHT22;2330;48.158;11.816;2022-10-12T02:19:27;12.90;98.50
4635;DHT22;2330;48.158;11.816;2022-10-12T02:21:59;12.80;98.50
4635;DHT22;2330;48.158;11.816;2022-10-12T02:24:28;12.80;98.50
4635;DHT22;2330;48.158;11.816;2022-10-12T02:26:56;12.80;98.50
4635;DHT22;2330;48.158;11.816;2022-10-12T02:29:27;12.80;98.50
4635;DHT22;2330;48.158;11.816;2022-10-12T02:32:10;12.80;98.50
4635;DHT22;2330;48.158;11.816;2022-10-12T02:37:42;12.80;98.50
4635;DHT22;2330;48.158;11.816;2022-10-12T02:40:20;12.80;98.50
4635;DHT22;2330;48.158;11.816;2022-10-12T02:42:53;12.80;98.50
4635;DHT22;2330;48.158;11.816;2022-10-12T02:45:40;12.80;98.50
4635;DHT22;2330;48.158;11.816;2022-10-12T02:48:08;12.90;98.50
4635;DHT22;2330;48.158;11.816;2022-10-12T02:50:37;12.90;98.50
4635;DHT22;2330;48.158;11.816;2022-10-12T02:53:04;13.00;98.50
4635;DHT22;2330;48.158;11.816;2022-10-12T02:55:59;12.90;98.50
4635;DHT22;2330;48.158;11.816;2022-10-12T02:58:23;12.90;98.50
4635;DHT22;2330;48.158;11.816;2022-10-12T03:00:51;13.00;98.50
4635;DHT22;2330;48.158;11.816;2022-10-12T03:03:17;13.10;98.50
4635;DHT22;2330;48.158;11.816;2022-10-12T03:05:44;13.10;98.50
4635;DHT22;2330;48.158;11.816;2022-10-12T03:08:11;13.10;98.50
4635;DHT22;2330;48.158;11.816;2022-10-12T03:10:38;13.10;98.50
4635;DHT22;2330;48.158;11.816;2022-10-12T03:13:05;13.00;98.50
4635;DHT22;2330;48.158;11.816;2022-10-12T03:15:31;13.00;98.50
4635;DHT22;2330;48.158;11.816;2022-10-12T03:17:58;13.00;98.50
4635;DHT22;2330;48.158;11.816;2022-10-12T03:20:25;13.00;98.50
4635;DHT22;2330;48.158;11.816;2022-10-12T03:22:51;12.90;98.50
4635;DHT22;2330;48.158;11.816;2022-10-12T03:25:18;12.80;98.50
4635;DHT22;2330;48.158;11.816;2022-10-12T03:27:45;12.80;98.50
4635;DHT22;2330;48.158;11.816;2022-10-12T03:30:12;12.80;98.50
4635;DHT22;2330;48.158;11.816;2022-10-12T03:32:40;12.80;98.50
4635;DHT22;2330;48.158;11.816;2022-10-12T03:35:07;12.80;98.50
4635;DHT22;2330;48.158;11.816;2022-10-12T03:37:34;12.80;98.50
4635;DHT22;2330;48.158;11.816;2022-10-12T03:40:01;12.80;98.50
4635;DHT22;2330;48.158;11.816;2022-10-12T03:42:28;12.70;98.50
4635;DHT22;2330;48.158;11.816;2022-10-12T03:44:55;12.80;98.50
4635;DHT22;2330;48.158;11.816;2022-10-12T03:47:21;12.80;98.50
4635;DHT22;2330;48.158;11.816;2022-10-12T03:49:48;12.80;98.50
4635;DHT22;2330;48.158;11.816;2022-10-12T03:52:15;12.80;98.50
4635;DHT22;2330;48.158;11.816;2022-10-12T03:54:41;12.80;98.50
4635;DHT22;2330;48.158;11.816;2022-10-12T03:57:08;12.80;98.50
4635;DHT22;2330;48.158;11.816;2022-10-12T03:59:34;12.80;98.50
4635;DHT22;2330;48.158;11.816;2022-10-12T04:02:01;12.80;98.50
4635;DHT22;2330;48.158;11.816;2022-10-12T04:04:28;12.90;98.50
4635;DHT22;2330;48.158;11.816;2022-10-12T04:06:54;12.80;98.50
4635;DHT22;2330;48.158;11.816;2022-10-12T04:09:21;12.80;98.50
4635;DHT22;2330;48.158;11.816;2022-10-12T04:11:48;12.80;98.50
4635;DHT22;2330;48.158;11.816;2022-10-12T04:14:14;12.90;98.50
4635;DHT22;2330;48.158;11.816;2022-10-12T04:16:41;12.90;98.50
4635;DHT22;2330;48.158;11.816;2022-10-12T04:19:11;12.90;98.50
4635;DHT22;2330;48.158;11.816;2022-10-12T04:21:39;13.00;98.50
4635;DHT22;2330;48.158;11.816;2022-10-12T04:24:06;13.00;98.50
4635;DHT22;2330;48.158;11.816;2022-10-12T04:26:33;13.00;98.50
4635;DHT22;2330;48.158;11.816;2022-10-12T04:28:59;13.10;98.50
4635;DHT22;2330;48.158;11.816;2022-10-12T04:31:26;13.10;98.50
4635;DHT22;2330;48.158;11.816;2022-10-12T04:33:53;13.00;98.50
4635;DHT22;2330;48.158;11.816;2022-10-12T04:36:23;13.00;98.50
4635;DHT22;2330;48.158;11.816;2022-10-12T04:38:51;13.00;98.50
4635;DHT22;2330;48.158;11.816;2022-10-12T04:41:22;13.00;98.50
4635;DHT22;2330;48.158;11.816;2022-10-12T04:43:51;12.90;98.50
4635;DHT22;2330;48.158;11.816;2022-10-12T04:46:18;12.90;98.50
4635;DHT22;2330;48.158;11.816;2022-10-12T04:48:45;12.90;98.50
4635;DHT22;2330;48.158;11.816;2022-10-12T04:51:12;12.90;98.50
4635;DHT22;2330;48.158;11.816;2022-10-12T04:53:38;12.90;98.50
4635;DHT22;2330;48.158;11.816;2022-10-12T04:56:05;13.00;98.50
4635;DHT22;2330;48.158;11.816;2022-10-12T04:58:32;13.00;98.50
4635;DHT22;2330;48.158;11.816;2022-10-12T05:00:59;13.00;98.50
4635;DHT22;2330;48.158;11.816;2022-10-12T05:03:26;13.00;98.50
4635;DHT22;2330;48.158;11.816;2022-10-12T05:05:52;13.00;98.50
4635;DHT22;2330;48.158;11.816;2022-10-12T05:08:19;13.00;98.50
4635;DHT22;2330;48.158;11.816;2022-10-12T05:10:46;13.00;98.50
4635;DHT22;2330;48.158;11.816;2022-10-12T05:13:13;13.00;98.50
4635;DHT22;2330;48.158;11.816;2022-10-12T05:15:41;12.90;98.50
4635;DHT22;2330;48.158;11.816;2022-10-12T05:18:08;13.00;98.50
4635;DHT22;2330;48.158;11.816;2022-10-12T05:20:35;13.00;98.50
4635;DHT22;2330;48.158;11.816;2022-10-12T05:23:02;13.00;98.50
4635;DHT22;2330;48.158;11.816;2022-10-12T05:25:29;12.90;98.50
4635;DHT22;2330;48.158;11.816;2022-10-12T05:27:56;12.90;98.50
4635;DHT22;2330;48.158;11.816;2022-10-12T05:30:23;12.90;98.50
4635;DHT22;2330;48.158;11.816;2022-10-12T05:32:50;12.80;98.50
4635;DHT22;2330;48.158;11.816;2022-10-12T05:35:16;12.80;98.50
4635;DHT22;2330;48.158;11.816;2022-10-12T05:37:43;12.70;98.50
4635;DHT22;2330;48.158;11.816;2022-10-12T05:40:10;12.80;98.50
4635;DHT22;2330;48.158;11.816;2022-10-12T05:42:37;12.80;98.50
4635;DHT22;2330;48.158;11.816;2022-10-12T05:45:04;12.80;98.50
4635;DHT22;2330;48.158;11.816;2022-10-12T05:47:31;12.70;98.50
4635;DHT22;2330;48.158;11.816;2022-10-12T05:49:58;12.70;98.50
4635;DHT22;2330;48.158;11.816;2022-10-12T05:52:25;12.70;98.50
4635;DHT22;2330;48.158;11.816;2022-10-12T05:54:52;12.70;98.50
4635;DHT22;2330;48.158;11.816;2022-10-12T05:57:18;12.80;98.50
4635;DHT22;2330;48.158;11.816;2022-10-12T05:59:45;12.80;98.50
4635;DHT22;2330;48.158;11.816;2022-10-12T06:02:16;12.80;98.50
4635;DHT22;2330;48.158;11.816;2022-10-12T06:04:43;12.80;98.50
4635;DHT22;2330;48.158;11.816;2022-10-12T06:07:10;12.80;98.50
4635;DHT22;2330;48.158;11.816;2022-10-12T06:09:37;12.90;98.50
4635;DHT22;2330;48.158;11.816;2022-10-12T06:12:05;12.90;98.50
4635;DHT22;2330;48.158;11.816;2022-10-12T06:14:32;12.90;98.50
4635;DHT22;2330;48.158;11.816;2022-10-12T06:16:59;12.90;98.50
4635;DHT22;2330;48.158;11.816;2022-10-12T06:19:25;12.90;98.50
4635;DHT22;2330;48.158;11.816;2022-10-12T06:21:52;12.90;98.50
4635;DHT22;2330;48.158;11.816;2022-10-12T06:24:19;13.00;98.50
4635;DHT22;2330;48.158;11.816;2022-10-12T06:26:45;13.10;98.50
4635;DHT22;2330;48.158;11.816;2022-10-12T06:29:12;13.10;98.50
4635;DHT22;2330;48.158;11.816;2022-10-12T06:31:39;13.20;98.50
4635;DHT22;2330;48.158;11.816;2022-10-12T06:34:06;13.30;98.50
4635;DHT22;2330;48.158;11.816;2022-10-12T06:36:33;13.30;98.50
4635;DHT22;2330;48.158;11.816;2022-10-12T06:38:59;13.20;98.50
4635;DHT22;2330;48.158;11.816;2022-10-12T06:41:26;13.10;98.50
4635;DHT22;2330;48.158;11.816;2022-10-12T06:43:53;13.10;98.50
4635;DHT22;2330;48.158;11.816;2022-10-12T06:46:20;13.10;98.50
4635;DHT22;2330;48.158;11.816;2022-10-12T06:48:46;13.00;98.50
4635;DHT22;2330;48.158;11.816;2022-10-12T06:51:13;13.10;98.50
4635;DHT22;2330;48.158;11.816;2022-10-12T06:53:40;13.20;98.50
4635;DHT22;2330;48.158;11.816;2022-10-12T06:56:08;13.30;98.50
4635;DHT22;2330;48.158;11.816;2022-10-12T06:58:35;13.30;98.50
4635;DHT22;2330;48.158;11.816;2022-10-12T07:01:03;13.30;98.50
4635;DHT22;2330;48.158;11.816;2022-10-12T07:03:31;13.30;98.50
4635;DHT22;2330;48.158;11.816;2022-10-12T07:06:12;13.40;98.50
4635;DHT22;2330;48.158;11.816;2022-10-12T07:08:40;13.40;98.50
4635;DHT22;2330;48.158;11.816;2022-10-12T07:11:10;13.40;98.50
4635;DHT22;2330;48.158;11.816;2022-10-12T07:13:38;13.40;98.50
4635;DHT22;2330;48.158;11.816;2022-10-12T07:16:05;13.40;98.50
4635;DHT22;2330;48.158;11.816;2022-10-12T07:18:32;13.40;98.50
4635;DHT22;2330;48.158;11.816;2022-10-12T07:20:59;13.40;98.50
4635;DHT22;2330;48.158;11.816;2022-10-12T07:23:26;13.40;98.50
4635;DHT22;2330;48.158;11.816;2022-10-12T07:25:53;13.40;98.50
4635;DHT22;2330;48.158;11.816;2022-10-12T07:28:20;13.40;98.50
4635;DHT22;2330;48.158;11.816;2022-10-12T07:30:48;13.40;98.50
4635;DHT22;2330;48.158;11.816;2022-10-12T07:33:15;13.40;98.50
4635;DHT22;2330;48.158;11.816;2022-10-12T07:35:42;13.40;98.50
4635;DHT22;2330;48.158;11.816;2022-10-12T07:38:29;13.40;98.50
4635;DHT22;2330;48.158;11.816;2022-10-12T07:40:59;13.40;98.50
4635;DHT22;2330;48.158;11.816;2022-10-12T07:43:28;13.40;98.50
4635;DHT22;2330;48.158;11.816;2022-10-12T07:45:54;13.40;98.50
4635;DHT22;2330;48.158;11.816;2022-10-12T07:48:22;13.40;98.50
4635;DHT22;2330;48.158;11.816;2022-10-12T07:50:49;13.40;98.50
4635;DHT22;2330;48.158;11.816;2022-10-12T07:53:15;13.40;98.50
4635;DHT22;2330;48.158;11.816;2022-10-12T07:55:42;13.40;98.50
4635;DHT22;2330;48.158;11.816;2022-10-12T07:58:09;13.50;98.50
4635;DHT22;2330;48.158;11.816;2022-10-12T08:00:36;13.50;98.50
4635;DHT22;2330;48.158;11.816;2022-10-12T08:03:03;13.50;98.50
4635;DHT22;2330;48.158;11.816;2022-10-12T08:05:29;13.50;98.50
4635;DHT22;2330;48.158;11.816;2022-10-12T08:07:56;13.50;98.50
4635;DHT22;2330;48.158;11.816;2022-10-12T08:10:23;13.50;98.50
4635;DHT22;2330;48.158;11.816;2022-10-12T08:12:49;13.60;98.50
4635;DHT22;2330;48.158;11.816;2022-10-12T08:15:17;13.70;98.50
4635;DHT22;2330;48.158;11.816;2022-10-12T08:17:44;13.70;98.50
4635;DHT22;2330;48.158;11.816;2022-10-12T08:20:11;13.60;98.50
4635;DHT22;2330;48.158;11.816;2022-10-12T08:22:38;13.60;98.50
4635;DHT22;2330;48.158;11.816;2022-10-12T08:25:05;13.60;98.50
4635;DHT22;2330;48.158;11.816;2022-10-12T08:27:31;13.60;98.50
4635;DHT22;2330;48.158;11.816;2022-10-12T08:29:58;13.60;98.50
4635;DHT22;2330;48.158;11.816;2022-10-12T08:32:25;13.60;98.50
4635;DHT22;2330;48.158;11.816;2022-10-12T08:34:52;13.60;98.50
4635;DHT22;2330;48.158;11.816;2022-10-12T08:37:18;13.70;98.50
4635;DHT22;2330;48.158;11.816;2022-10-12T08:39:45;13.80;98.50
4635;DHT22;2330;48.158;11.816;2022-10-12T08:42:39;13.80;98.50
4635;DHT22;2330;48.158;11.816;2022-10-12T08:48:15;13.80;98.50
4635;DHT22;2330;48.158;11.816;2022-10-12T08:50:55;13.80;98.50
4635;DHT22;2330;48.158;11.816;2022-10-12T08:53:57;13.80;98.50
4635;DHT22;2330;48.158;11.816;2022-10-12T08:56:26;13.80;98.50
4635;DHT22;2330;48.158;11.816;2022-10-12T08:58:53;13.80;98.50
4635;DHT22;2330;48.158;11.816;2022-10-12T09:01:33;13.80;98.50
4635;DHT22;2330;48.158;11.816;2022-10-12T09:07:11;13.90;98.50
4635;DHT22;2330;48.158;11.816;2022-10-12T09:15:23;13.90;98.50
4635;DHT22;2330;48.158;11.816;2022-10-12T09:17:53;13.90;98.50
4635;DHT22;2330;48.158;11.816;2022-10-12T09:20:24;13.90;98.50
4635;DHT22;2330;48.158;11.816;2022-10-12T09:22:58;14.00;98.50
4635;DHT22;2330;48.158;11.816;2022-10-12T09:25:27;14.00;98.50
4635;DHT22;2330;48.158;11.816;2022-10-12T09:28:00;14.00;98.50
4635;DHT22;2330;48.158;11.816;2022-10-12T09:30:34;14.00;98.50
4635;DHT22;2330;48.158;11.816;2022-10-12T09:33:19;14.00;98.50
4635;DHT22;2330;48.158;11.816;2022-10-12T09:35:47;14.10;98.50
4635;DHT22;2330;48.158;11.816;2022-10-12T09:38:16;14.10;98.50
4635;DHT22;2330;48.158;11.816;2022-10-12T09:40:43;14.20;98.50
4635;DHT22;2330;48.158;11.816;2022-10-12T09:43:12;14.30;98.50
4635;DHT22;2330;48.158;11.816;2022-10-12T09:45:40;14.30;98.50
4635;DHT22;2330;48.158;11.816;2022-10-12T09:50:43;14.50;98.50
4635;DHT22;2330;48.158;11.816;2022-10-12T09:53:14;14.70;98.50
4635;DHT22;2330;48.158;11.816;2022-10-12T09:55:53;14.80;98.50
4635;DHT22;2330;48.158;11.816;2022-10-12T09:58:21;14.80;98.50
4635;DHT22;2330;48.158;11.816;2022-10-12T10:01:21;14.90;98.50
4635;DHT22;2330;48.158;11.816;2022-10-12T10:04:09;15.00;98.50
4635;DHT22;2330;48.158;11.816;2022-10-12T10:06:39;15.20;98.50
4635;DHT22;2330;48.158;11.816;2022-10-12T10:09:27;15.30;98.50
4635;DHT22;2330;48.158;11.816;2022-10-12T10:11:56;15.40;98.50
4635;DHT22;2330;48.158;11.816;2022-10-12T10:14:23;15.40;98.50
4635;DHT22;2330;48.158;11.816;2022-10-12T10:16:51;15.50;98.50
4635;DHT22;2330;48.158;11.816;2022-10-12T10:19:21;15.60;98.50
4635;DHT22;2330;48.158;11.816;2022-10-12T10:21:51;15.50;98.50
4635;DHT22;2330;48.158;11.816;2022-10-12T10:24:27;15.50;98.50
4635;DHT22;2330;48.158;11.816;2022-10-12T10:27:00;15.40;98.50
4635;DHT22;2330;48.158;11.816;2022-10-12T10:29:41;15.30;98.50
4635;DHT22;2330;48.158;11.816;2022-10-12T10:32:20;15.30;98.50
4635;DHT22;2330;48.158;11.816;2022-10-12T10:38:53;15.20;98.50
4635;DHT22;2330;48.158;11.816;2022-10-12T10:41:31;15.40;98.50
4635;DHT22;2330;48.158;11.816;2022-10-12T10:43:58;15.40;98.50
4635;DHT22;2330;48.158;11.816;2022-10-12T10:46:31;15.40;98.50
4635;DHT22;2330;48.158;11.816;2022-10-12T10:49:06;15.40;98.50
4635;DHT22;2330;48.158;11.816;2022-10-12T10:51:40;15.50;98.50
4635;DHT22;2330;48.158;11.816;2022-10-12T10:54:15;15.60;98.50
4635;DHT22;2330;48.158;11.816;2022-10-12T10:56:51;15.60;98.50
4635;DHT22;2330;48.158;11.816;2022-10-12T10:59:29;15.70;98.50
4635;DHT22;2330;48.158;11.816;2022-10-12T11:05:16;15.80;98.50
4635;DHT22;2330;48.158;11.816;2022-10-12T11:07:49;15.90;98.50
4635;DHT22;2330;48.158;11.816;2022-10-12T11:13:00;15.70;98.50
4635;DHT22;2330;48.158;11.816;2022-10-12T11:15:30;15.70;98.50
4635;DHT22;2330;48.158;11.816;2022-10-12T11:18:06;15.50;98.50
4635;DHT22;2330;48.158;11.816;2022-10-12T11:20:47;15.50;98.50
4635;DHT22;2330;48.158;11.816;2022-10-12T11:23:21;15.50;98.50
4635;DHT22;2330;48.158;11.816;2022-10-12T11:25:58;15.50;98.50
4635;DHT22;2330;48.158;11.816;2022-10-12T11:28:30;15.50;98.50
4635;DHT22;2330;48.158;11.816;2022-10-12T11:30:58;15.50;98.50
4635;DHT22;2330;48.158;11.816;2022-10-12T11:33:29;15.50;98.50
4635;DHT22;2330;48.158;11.816;2022-10-12T11:36:07;15.60;98.50
4635;DHT22;2330;48.158;11.816;2022-10-12T11:41:28;15.60;98.50
4635;DHT22;2330;48.158;11.816;2022-10-12T11:49:58;15.80;98.50
4635;DHT22;2330;48.158;11.816;2022-10-12T11:52:27;15.70;98.50
4635;DHT22;2330;48.158;11.816;2022-10-12T11:58:18;15.70;98.50
4635;DHT22;2330;48.158;11.816;2022-10-12T12:09:48;15.50;98.50
4635;DHT22;2330;48.158;11.816;2022-10-12T12:12:27;15.50;98.50
4635;DHT22;2330;48.158;11.816;2022-10-12T12:19:50;15.30;98.50
4635;DHT22;2330;48.158;11.816;2022-10-12T12:32:47;15.40;98.50
4635;DHT22;2330;48.158;11.816;2022-10-12T12:38:29;15.40;98.50
4635;DHT22;2330;48.158;11.816;2022-10-12T12:41:08;15.50;98.50
4635;DHT22;2330;48.158;11.816;2022-10-12T12:43:37;15.50;98.50
4635;DHT22;2330;48.158;11.816;2022-10-12T12:46:07;15.60;98.50
4635;DHT22;2330;48.158;11.816;2022-10-12T12:51:25;15.70;98.50
4635;DHT22;2330;48.158;11.816;2022-10-12T12:54:00;15.60;98.50
4635;DHT22;2330;48.158;11.816;2022-10-12T13:00:11;15.40;98.50
4635;DHT22;2330;48.158;11.816;2022-10-12T13:21:37;15.20;98.50
4635;DHT22;2330;48.158;11.816;2022-10-12T13:24:24;15.20;98.50
4635;DHT22;2330;48.158;11.816;2022-10-12T13:26:54;15.20;98.50
4635;DHT22;2330;48.158;11.816;2022-10-12T13:29:40;15.10;98.50
4635;DHT22;2330;48.158;11.816;2022-10-12T13:32:37;15.10;98.50
4635;DHT22;2330;48.158;11.816;2022-10-12T13:38:03;15.10;98.50
4635;DHT22;2330;48.158;11.816;2022-10-12T13:40:38;15.10;98.50
4635;DHT22;2330;48.158;11.816;2022-10-12T13:46:03;15.00;98.50
4635;DHT22;2330;48.158;11.816;2022-10-12T13:48:30;15.00;98.50
4635;DHT22;2330;48.158;11.816;2022-10-12T13:51:23;15.00;98.50
4635;DHT22;2330;48.158;11.816;2022-10-12T13:53:50;15.10;98.50
4635;DHT22;2330;48.158;11.816;2022-10-12T13:56:19;15.10;98.50
4635;DHT22;2330;48.158;11.816;2022-10-12T13:58:46;15.10;98.50
4635;DHT22;2330;48.158;11.816;2022-10-12T14:01:13;15.00;98.50
4635;DHT22;2330;48.158;11.816;2022-10-12T14:03:44;15.00;98.50
4635;DHT22;2330;48.158;11.816;2022-10-12T14:06:26;14.90;98.50
4635;DHT22;2330;48.158;11.816;2022-10-12T14:09:08;14.90;98.50
4635;DHT22;2330;48.158;11.816;2022-10-12T14:11:36;14.80;98.50
4635;DHT22;2330;48.158;11.816;2022-10-12T14:14:12;14.80;98.50
4635;DHT22;2330;48.158;11.816;2022-10-12T14:16:42;14.80;98.50
4635;DHT22;2330;48.158;11.816;2022-10-12T14:20:13;14.80;98.50
4635;DHT22;2330;48.158;11.816;2022-10-12T14:22:03;14.80;98.50
4635;DHT22;2330;48.158;11.816;2022-10-12T14:24:30;14.80;98.50
4635;DHT22;2330;48.158;11.816;2022-10-12T14:27:00;14.70;98.50
4635;DHT22;2330;48.158;11.816;2022-10-12T14:29:43;14.70;98.50
4635;DHT22;2330;48.158;11.816;2022-10-12T14:34:39;14.70;98.50
4635;DHT22;2330;48.158;11.816;2022-10-12T14:39:47;14.70;98.50
4635;DHT22;2330;48.158;11.816;2022-10-12T14:42:21;14.70;98.50
4635;DHT22;2330;48.158;11.816;2022-10-12T14:44:49;14.70;98.50
4635;DHT22;2330;48.158;11.816;2022-10-12T14:47:20;14.60;98.50
4635;DHT22;2330;48.158;11.816;2022-10-12T14:49:49;14.50;98.50
4635;DHT22;2330;48.158;11.816;2022-10-12T14:52:41;14.50;98.50
4635;DHT22;2330;48.158;11.816;2022-10-12T14:55:23;14.50;98.50
4635;DHT22;2330;48.158;11.816;2022-10-12T14:57:51;14.40;98.50
4635;DHT22;2330;48.158;11.816;2022-10-12T15:02:46;14.40;98.50
4635;DHT22;2330;48.158;11.816;2022-10-12T15:05:14;14.40;98.50
4635;DHT22;2330;48.158;11.816;2022-10-12T15:07:42;14.40;98.50
4635;DHT22;2330;48.158;11.816;2022-10-12T15:10:09;14.40;98.50
4635;DHT22;2330;48.158;11.816;2022-10-12T15:12:35;14.40;98.50
4635;DHT22;2330;48.158;11.816;2022-10-12T15:15:30;14.30;98.50
4635;DHT22;2330;48.158;11.816;2022-10-12T15:17:57;14.30;98.50
4635;DHT22;2330;48.158;11.816;2022-10-12T15:20:26;14.30;98.50
4635;DHT22;2330;48.158;11.816;2022-10-12T15:22:53;14.30;98.50
4635;DHT22;2330;48.158;11.816;2022-10-12T15:25:24;14.30;98.50
4635;DHT22;2330;48.158;11.816;2022-10-12T15:27:51;14.30;98.50
4635;DHT22;2330;48.158;11.816;2022-10-12T15:30:18;14.20;98.50
4635;DHT22;2330;48.158;11.816;2022-10-12T15:32:45;14.20;98.50
4635;DHT22;2330;48.158;11.816;2022-10-12T15:35:20;14.20;98.50
4635;DHT22;2330;48.158;11.816;2022-10-12T15:37:47;14.10;98.50
4635;DHT22;2330;48.158;11.816;2022-10-12T15:40:15;14.10;98.50
4635;DHT22;2330;48.158;11.816;2022-10-12T15:42:43;14.10;98.50
4635;DHT22;2330;48.158;11.816;2022-10-12T15:45:24;14.00;98.50
4635;DHT22;2330;48.158;11.816;2022-10-12T15:47:52;14.00;98.50
4635;DHT22;2330;48.158;11.816;2022-10-12T15:50:25;14.00;98.50
4635;DHT22;2330;48.158;11.816;2022-10-12T15:52:55;14.00;98.50
4635;DHT22;2330;48.158;11.816;2022-10-12T15:55:27;13.90;98.50
4635;DHT22;2330;48.158;11.816;2022-10-12T15:57:55;13.80;98.50
4635;DHT22;2330;48.158;11.816;2022-10-12T16:00:25;13.90;98.50
4635;DHT22;2330;48.158;11.816;2022-10-12T16:02:54;13.90;98.50
4635;DHT22;2330;48.158;11.816;2022-10-12T16:05:24;13.80;98.50
4635;DHT22;2330;48.158;11.816;2022-10-12T16:07:52;13.80;98.50
4635;DHT22;2330;48.158;11.816;2022-10-12T16:10:22;13.70;98.50
4635;DHT22;2330;48.158;11.816;2022-10-12T16:12:50;13.70;98.50
4635;DHT22;2330;48.158;11.816;2022-10-12T16:15:23;13.70;98.50
4635;DHT22;2330;48.158;11.816;2022-10-12T16:17:50;13.70;98.50
4635;DHT22;2330;48.158;11.816;2022-10-12T16:20:17;13.60;98.50
4635;DHT22;2330;48.158;11.816;2022-10-12T16:22:44;13.60;98.50
4635;DHT22;2330;48.158;11.816;2022-10-12T16:25:13;13.60;98.50
4635;DHT22;2330;48.158;11.816;2022-10-12T16:27:40;13.60;98.50
4635;DHT22;2330;48.158;11.816;2022-10-12T16:30:07;13.60;98.50
4635;DHT22;2330;48.158;11.816;2022-10-12T16:32:34;13.60;98.50
4635;DHT22;2330;48.158;11.816;2022-10-12T16:35:01;13.60;98.50
4635;DHT22;2330;48.158;11.816;2022-10-12T16:37:29;13.50;98.50
4635;DHT22;2330;48.158;11.816;2022-10-12T16:39:55;13.50;98.50
4635;DHT22;2330;48.158;11.816;2022-10-12T16:42:22;13.50;98.50
4635;DHT22;2330;48.158;11.816;2022-10-12T16:44:49;13.50;98.50
4635;DHT22;2330;48.158;11.816;2022-10-12T16:47:16;13.50;98.50
4635;DHT22;2330;48.158;11.816;2022-10-12T16:49:43;13.60;98.50
4635;DHT22;2330;48.158;11.816;2022-10-12T16:52:10;13.60;98.50
4635;DHT22;2330;48.158;11.816;2022-10-12T16:54:36;13.50;98.50
4635;DHT22;2330;48.158;11.816;2022-10-12T16:57:03;13.50;98.50
4635;DHT22;2330;48.158;11.816;2022-10-12T16:59:30;13.50;98.50
4635;DHT22;2330;48.158;11.816;2022-10-12T17:01:57;13.50;98.50
4635;DHT22;2330;48.158;11.816;2022-10-12T17:04:23;13.50;98.50
4635;DHT22;2330;48.158;11.816;2022-10-12T17:06:50;13.50;98.50
4635;DHT22;2330;48.158;11.816;2022-10-12T17:09:19;13.50;98.50
4635;DHT22;2330;48.158;11.816;2022-10-12T17:11:46;13.50;98.50
4635;DHT22;2330;48.158;11.816;2022-10-12T17:14:14;13.50;98.50
4635;DHT22;2330;48.158;11.816;2022-10-12T17:16:42;13.40;98.50
4635;DHT22;2330;48.158;11.816;2022-10-12T17:19:17;13.40;98.50
4635;DHT22;2330;48.158;11.816;2022-10-12T17:21:44;13.50;98.50
4635;DHT22;2330;48.158;11.816;2022-10-12T17:24:15;13.50;98.50
4635;DHT22;2330;48.158;11.816;2022-10-12T17:26:42;13.50;98.50
4635;DHT22;2330;48.158;11.816;2022-10-12T17:29:12;13.50;98.50
4635;DHT22;2330;48.158;11.816;2022-10-12T17:31:39;13.50;98.50
4635;DHT22;2330;48.158;11.816;2022-10-12T17:34:09;13.50;98.50
4635;DHT22;2330;48.158;11.816;2022-10-12T17:36:38;13.50;98.50
4635;DHT22;2330;48.158;11.816;2022-10-12T17:39:05;13.50;98.50
4635;DHT22;2330;48.158;11.816;2022-10-12T17:41:32;13.50;98.50
4635;DHT22;2330;48.158;11.816;2022-10-12T17:43:59;13.50;98.50
4635;DHT22;2330;48.158;11.816;2022-10-12T17:46:25;13.50;98.50
4635;DHT22;2330;48.158;11.816;2022-10-12T17:48:54;13.40;98.50
4635;DHT22;2330;48.158;11.816;2022-10-12T17:51:21;13.50;98.50
4635;DHT22;2330;48.158;11.816;2022-10-12T17:53:48;13.50;98.50
4635;DHT22;2330;48.158;11.816;2022-10-12T17:56:15;13.50;98.50
4635;DHT22;2330;48.158;11.816;2022-10-12T17:58:42;13.50;98.50
4635;DHT22;2330;48.158;11.816;2022-10-12T18:01:11;13.50;98.50
4635;DHT22;2330;48.158;11.816;2022-10-12T18:03:38;13.50;98.50
4635;DHT22;2330;48.158;11.816;2022-10-12T18:06:13;13.50;98.50
4635;DHT22;2330;48.158;11.816;2022-10-12T18:08:41;13.50;98.50